sensor_id;sensor_type;location;lat;lon;timestamp;P1;durP1;ratioP1;P2;durP2;ratioP2
23060;SDS011;11698;47.690;9.132;2022-10-04T00:02:22;6.43;;;3.70;;
23060;SDS011;11698;47.690;9.132;2022-10-04T00:07:19;6.70;;;3.80;;
23060;SDS011;11698;47.690;9.132;2022-10-04T00:09:51;7.28;;;3.40;;
23060;SDS011;11698;47.690;9.132;2022-10-04T00:12:23;7.00;;;3.78;;
23060;SDS011;11698;47.690;9.132;2022-10-04T00:14:51;6.32;;;3.60;;
23060;SDS011;11698;47.690;9.132;2022-10-04T00:17:25;6.82;;;3.53;;
23060;SDS011;11698;47.690;9.132;2022-10-04T00:19:52;7.33;;;3.63;;
23060;SDS011;11698;47.690;9.132;2022-10-04T00:22:19;5.15;;;3.60;;
23060;SDS011;11698;47.690;9.132;2022-10-04T00:25:13;6.80;;;3.92;;
23060;SDS011;11698;47.690;9.132;2022-10-04T00:28:27;6.28;;;3.75;;
23060;SDS011;11698;47.690;9.132;2022-10-04T00:30:34;5.88;;;3.45;;
23060;SDS011;11698;47.690;9.132;2022-10-04T00:33:02;6.77;;;3.90;;
23060;SDS011;11698;47.690;9.132;2022-10-04T00:40:25;7.22;;;3.85;;
23060;SDS011;11698;47.690;9.132;2022-10-04T00:42:56;6.78;;;3.72;;
23060;SDS011;11698;47.690;9.132;2022-10-04T00:47:55;6.57;;;3.70;;
23060;SDS011;11698;47.690;9.132;2022-10-04T00:56:00;5.93;;;3.72;;
23060;SDS011;11698;47.690;9.132;2022-10-04T00:58:28;6.55;;;3.83;;
23060;SDS011;11698;47.690;9.132;2022-10-04T01:00:55;4.60;;;3.40;;
23060;SDS011;11698;47.690;9.132;2022-10-04T01:03:38;4.95;;;3.40;;
23060;SDS011;11698;47.690;9.132;2022-10-04T01:06:07;9.10;;;4.47;;
23060;SDS011;11698;47.690;9.132;2022-10-04T01:08:39;4.30;;;3.60;;
23060;SDS011;11698;47.690;9.132;2022-10-04T01:11:09;4.60;;;3.72;;
23060;SDS011;11698;47.690;9.132;2022-10-04T01:13:39;6.20;;;4.03;;
23060;SDS011;11698;47.690;9.132;2022-10-04T01:18:36;7.30;;;4.18;;
23060;SDS011;11698;47.690;9.132;2022-10-04T01:23:44;4.57;;;3.90;;
23060;SDS011;11698;47.690;9.132;2022-10-04T01:28:49;6.13;;;3.72;;
23060;SDS011;11698;47.690;9.132;2022-10-04T01:31:16;6.60;;;3.45;;
23060;SDS011;11698;47.690;9.132;2022-10-04T01:33:42;7.57;;;3.55;;
23060;SDS011;11698;47.690;9.132;2022-10-04T01:36:08;4.22;;;3.20;;
23060;SDS011;11698;47.690;9.132;2022-10-04T01:38:34;3.92;;;3.25;;
23060;SDS011;11698;47.690;9.132;2022-10-04T01:41:00;5.28;;;3.45;;
23060;SDS011;11698;47.690;9.132;2022-10-04T01:43:30;5.80;;;3.70;;
23060;SDS011;11698;47.690;9.132;2022-10-04T01:45:59;5.95;;;3.60;;
23060;SDS011;11698;47.690;9.132;2022-10-04T01:48:28;5.63;;;3.60;;
23060;SDS011;11698;47.690;9.132;2022-10-04T01:51:04;8.63;;;3.63;;
23060;SDS011;11698;47.690;9.132;2022-10-04T01:53:39;5.28;;;3.47;;
23060;SDS011;11698;47.690;9.132;2022-10-04T01:56:11;5.40;;;3.35;;
23060;SDS011;11698;47.690;9.132;2022-10-04T01:58:42;5.47;;;3.75;;
23060;SDS011;11698;47.690;9.132;2022-10-04T02:01:14;4.07;;;3.00;;
23060;SDS011;11698;47.690;9.132;2022-10-04T02:03:46;5.43;;;3.30;;
23060;SDS011;11698;47.690;9.132;2022-10-04T02:06:17;4.60;;;3.65;;
23060;SDS011;11698;47.690;9.132;2022-10-04T02:08:45;5.10;;;3.30;;
23060;SDS011;11698;47.690;9.132;2022-10-04T02:11:15;5.07;;;3.17;;
23060;SDS011;11698;47.690;9.132;2022-10-04T02:13:41;5.18;;;3.70;;
23060;SDS011;11698;47.690;9.132;2022-10-04T02:16:10;6.85;;;3.95;;
23060;SDS011;11698;47.690;9.132;2022-10-04T02:18:37;6.40;;;3.63;;
23060;SDS011;11698;47.690;9.132;2022-10-04T02:21:05;6.68;;;4.07;;
23060;SDS011;11698;47.690;9.132;2022-10-04T02:23:31;6.78;;;4.03;;
23060;SDS011;11698;47.690;9.132;2022-10-04T02:25:58;7.00;;;4.17;;
23060;SDS011;11698;47.690;9.132;2022-10-04T02:28:24;5.33;;;4.00;;
23060;SDS011;11698;47.690;9.132;2022-10-04T02:30:51;5.03;;;3.97;;
23060;SDS011;11698;47.690;9.132;2022-10-04T02:33:50;6.82;;;4.43;;
23060;SDS011;11698;47.690;9.132;2022-10-04T02:36:17;6.65;;;4.35;;
23060;SDS011;11698;47.690;9.132;2022-10-04T02:41:19;6.03;;;4.57;;
23060;SDS011;11698;47.690;9.132;2022-10-04T02:46:27;7.50;;;5.00;;
23060;SDS011;11698;47.690;9.132;2022-10-04T02:48:57;7.75;;;4.50;;
23060;SDS011;11698;47.690;9.132;2022-10-04T02:51:29;8.20;;;5.05;;
23060;SDS011;11698;47.690;9.132;2022-10-04T02:54:04;7.60;;;4.95;;
23060;SDS011;11698;47.690;9.132;2022-10-04T02:59:04;7.32;;;4.35;;
23060;SDS011;11698;47.690;9.132;2022-10-04T03:01:41;5.97;;;4.43;;
23060;SDS011;11698;47.690;9.132;2022-10-04T03:04:10;7.82;;;4.95;;
23060;SDS011;11698;47.690;9.132;2022-10-04T03:06:39;7.67;;;4.60;;
23060;SDS011;11698;47.690;9.132;2022-10-04T03:09:05;7.93;;;4.63;;
23060;SDS011;11698;47.690;9.132;2022-10-04T03:11:35;5.43;;;4.70;;
23060;SDS011;11698;47.690;9.132;2022-10-04T03:14:03;6.82;;;4.93;;
23060;SDS011;11698;47.690;9.132;2022-10-04T03:16:34;6.80;;;4.20;;
23060;SDS011;11698;47.690;9.132;2022-10-04T03:19:01;6.95;;;4.63;;
23060;SDS011;11698;47.690;9.132;2022-10-04T03:21:28;7.80;;;4.72;;
23060;SDS011;11698;47.690;9.132;2022-10-04T03:23:56;6.43;;;4.35;;
23060;SDS011;11698;47.690;9.132;2022-10-04T03:28:57;7.15;;;5.15;;
23060;SDS011;11698;47.690;9.132;2022-10-04T03:31:24;5.82;;;4.53;;
23060;SDS011;11698;47.690;9.132;2022-10-04T03:33:52;8.35;;;4.88;;
23060;SDS011;11698;47.690;9.132;2022-10-04T03:36:19;11.55;;;4.53;;
23060;SDS011;11698;47.690;9.132;2022-10-04T03:38:45;7.28;;;4.57;;
23060;SDS011;11698;47.690;9.132;2022-10-04T03:41:12;8.82;;;4.63;;
23060;SDS011;11698;47.690;9.132;2022-10-04T03:43:44;8.48;;;4.72;;
23060;SDS011;11698;47.690;9.132;2022-10-04T03:46:10;7.32;;;4.50;;
23060;SDS011;11698;47.690;9.132;2022-10-04T03:48:40;5.97;;;4.38;;
23060;SDS011;11698;47.690;9.132;2022-10-04T03:51:10;8.70;;;4.40;;
23060;SDS011;11698;47.690;9.132;2022-10-04T03:53:38;6.82;;;4.47;;
23060;SDS011;11698;47.690;9.132;2022-10-04T03:56:11;7.03;;;4.30;;
23060;SDS011;11698;47.690;9.132;2022-10-04T03:58:37;6.93;;;4.32;;
23060;SDS011;11698;47.690;9.132;2022-10-04T04:01:11;7.28;;;4.65;;
23060;SDS011;11698;47.690;9.132;2022-10-04T04:03:52;7.47;;;4.32;;
23060;SDS011;11698;47.690;9.132;2022-10-04T04:06:19;7.30;;;4.38;;
23060;SDS011;11698;47.690;9.132;2022-10-04T04:08:47;6.63;;;4.03;;
23060;SDS011;11698;47.690;9.132;2022-10-04T04:11:19;6.87;;;4.47;;
23060;SDS011;11698;47.690;9.132;2022-10-04T04:16:24;6.60;;;4.60;;
23060;SDS011;11698;47.690;9.132;2022-10-04T04:18:51;6.95;;;4.47;;
23060;SDS011;11698;47.690;9.132;2022-10-04T04:21:18;7.07;;;4.43;;
23060;SDS011;11698;47.690;9.132;2022-10-04T04:23:46;6.60;;;4.50;;
23060;SDS011;11698;47.690;9.132;2022-10-04T04:26:27;8.83;;;5.20;;
23060;SDS011;11698;47.690;9.132;2022-10-04T04:29:06;8.43;;;5.20;;
23060;SDS011;11698;47.690;9.132;2022-10-04T04:31:35;8.20;;;5.10;;
23060;SDS011;11698;47.690;9.132;2022-10-04T04:34:03;10.82;;;5.60;;
23060;SDS011;11698;47.690;9.132;2022-10-04T04:36:31;7.35;;;4.88;;
23060;SDS011;11698;47.690;9.132;2022-10-04T04:39:08;7.30;;;4.80;;
23060;SDS011;11698;47.690;9.132;2022-10-04T04:41:52;8.55;;;4.70;;
23060;SDS011;11698;47.690;9.132;2022-10-04T04:44:18;9.82;;;5.10;;
23060;SDS011;11698;47.690;9.132;2022-10-04T04:46:45;7.43;;;5.10;;
23060;SDS011;11698;47.690;9.132;2022-10-04T04:49:12;9.18;;;5.05;;
23060;SDS011;11698;47.690;9.132;2022-10-04T04:51:40;9.63;;;5.13;;
23060;SDS011;11698;47.690;9.132;2022-10-04T04:54:10;8.70;;;5.20;;
23060;SDS011;11698;47.690;9.132;2022-10-04T04:56:36;8.57;;;4.63;;
23060;SDS011;11698;47.690;9.132;2022-10-04T04:59:03;6.35;;;4.90;;
23060;SDS011;11698;47.690;9.132;2022-10-04T05:01:35;8.55;;;5.00;;
23060;SDS011;11698;47.690;9.132;2022-10-04T05:06:40;8.27;;;4.93;;
23060;SDS011;11698;47.690;9.132;2022-10-04T05:14:32;7.93;;;5.13;;
23060;SDS011;11698;47.690;9.132;2022-10-04T05:16:58;7.85;;;5.05;;
23060;SDS011;11698;47.690;9.132;2022-10-04T05:19:31;7.57;;;5.20;;
23060;SDS011;11698;47.690;9.132;2022-10-04T05:21:59;6.80;;;4.87;;
23060;SDS011;11698;47.690;9.132;2022-10-04T05:24:29;8.20;;;5.22;;
23060;SDS011;11698;47.690;9.132;2022-10-04T05:27:00;10.55;;;5.35;;
23060;SDS011;11698;47.690;9.132;2022-10-04T05:29:31;8.52;;;5.22;;
23060;SDS011;11698;47.690;9.132;2022-10-04T05:34:35;9.48;;;5.13;;
23060;SDS011;11698;47.690;9.132;2022-10-04T05:44:59;9.57;;;5.73;;
23060;SDS011;11698;47.690;9.132;2022-10-04T05:47:29;9.27;;;5.57;;
23060;SDS011;11698;47.690;9.132;2022-10-04T05:49:55;10.27;;;5.97;;
23060;SDS011;11698;47.690;9.132;2022-10-04T06:00:13;10.35;;;5.30;;
23060;SDS011;11698;47.690;9.132;2022-10-04T06:02:53;9.20;;;5.03;;
23060;SDS011;11698;47.690;9.132;2022-10-04T06:10:33;9.60;;;5.13;;
23060;SDS011;11698;47.690;9.132;2022-10-04T06:18:36;9.60;;;5.18;;
23060;SDS011;11698;47.690;9.132;2022-10-04T06:21:23;11.05;;;5.20;;
23060;SDS011;11698;47.690;9.132;2022-10-04T06:24:04;9.02;;;5.30;;
23060;SDS011;11698;47.690;9.132;2022-10-04T06:26:37;8.65;;;5.30;;
23060;SDS011;11698;47.690;9.132;2022-10-04T06:29:12;10.07;;;5.30;;
23060;SDS011;11698;47.690;9.132;2022-10-04T06:39:47;8.73;;;5.88;;
23060;SDS011;11698;47.690;9.132;2022-10-04T06:47:19;12.00;;;5.95;;
23060;SDS011;11698;47.690;9.132;2022-10-04T07:08:16;10.77;;;6.00;;
23060;SDS011;11698;47.690;9.132;2022-10-04T07:11:00;8.63;;;6.07;;
23060;SDS011;11698;47.690;9.132;2022-10-04T07:16:05;12.53;;;7.40;;
23060;SDS011;11698;47.690;9.132;2022-10-04T07:18:34;10.73;;;6.50;;
23060;SDS011;11698;47.690;9.132;2022-10-04T07:21:04;9.85;;;5.85;;
23060;SDS011;11698;47.690;9.132;2022-10-04T07:23:37;11.10;;;6.53;;
23060;SDS011;11698;47.690;9.132;2022-10-04T07:26:14;8.63;;;5.68;;
23060;SDS011;11698;47.690;9.132;2022-10-04T07:28:41;10.98;;;5.55;;
23060;SDS011;11698;47.690;9.132;2022-10-04T07:31:27;8.27;;;6.13;;
23060;SDS011;11698;47.690;9.132;2022-10-04T07:34:02;8.35;;;5.63;;
23060;SDS011;11698;47.690;9.132;2022-10-04T07:39:21;9.70;;;5.47;;
23060;SDS011;11698;47.690;9.132;2022-10-04T07:41:57;8.32;;;5.53;;
23060;SDS011;11698;47.690;9.132;2022-10-04T07:44:34;9.63;;;5.68;;
23060;SDS011;11698;47.690;9.132;2022-10-04T07:47:22;10.60;;;5.70;;
23060;SDS011;11698;47.690;9.132;2022-10-04T07:49:47;8.52;;;5.45;;
23060;SDS011;11698;47.690;9.132;2022-10-04T07:54:50;7.27;;;4.90;;
23060;SDS011;11698;47.690;9.132;2022-10-04T07:57:42;13.30;;;5.07;;
23060;SDS011;11698;47.690;9.132;2022-10-04T08:00:15;8.70;;;5.25;;
23060;SDS011;11698;47.690;9.132;2022-10-04T08:15:39;8.30;;;5.03;;
23060;SDS011;11698;47.690;9.132;2022-10-04T08:28:29;9.52;;;5.65;;
23060;SDS011;11698;47.690;9.132;2022-10-04T08:38:57;11.68;;;6.60;;
23060;SDS011;11698;47.690;9.132;2022-10-04T08:51:48;10.18;;;6.65;;
23060;SDS011;11698;47.690;9.132;2022-10-04T08:55:19;10.57;;;6.40;;
23060;SDS011;11698;47.690;9.132;2022-10-04T08:57:18;10.50;;;6.80;;
23060;SDS011;11698;47.690;9.132;2022-10-04T09:02:46;11.18;;;6.90;;
23060;SDS011;11698;47.690;9.132;2022-10-04T09:13:09;10.83;;;7.20;;
23060;SDS011;11698;47.690;9.132;2022-10-04T09:23:07;9.87;;;6.70;;
23060;SDS011;11698;47.690;9.132;2022-10-04T09:25:47;9.97;;;6.93;;
23060;SDS011;11698;47.690;9.132;2022-10-04T09:28:28;9.88;;;6.93;;
23060;SDS011;11698;47.690;9.132;2022-10-04T09:41:33;9.63;;;6.60;;
23060;SDS011;11698;47.690;9.132;2022-10-04T09:44:13;12.20;;;6.72;;
23060;SDS011;11698;47.690;9.132;2022-10-04T09:46:57;10.07;;;7.07;;
23060;SDS011;11698;47.690;9.132;2022-10-04T09:54:53;9.67;;;6.97;;
23060;SDS011;11698;47.690;9.132;2022-10-04T10:00:07;9.90;;;7.15;;
23060;SDS011;11698;47.690;9.132;2022-10-04T10:05:48;12.13;;;8.43;;
23060;SDS011;11698;47.690;9.132;2022-10-04T10:29:36;9.65;;;6.85;;
23060;SDS011;11698;47.690;9.132;2022-10-04T10:32:12;9.57;;;6.72;;
23060;SDS011;11698;47.690;9.132;2022-10-04T10:40:05;8.65;;;6.47;;
23060;SDS011;11698;47.690;9.132;2022-10-04T11:06:26;7.88;;;5.70;;
23060;SDS011;11698;47.690;9.132;2022-10-04T11:22:18;8.63;;;5.97;;
23060;SDS011;11698;47.690;9.132;2022-10-04T11:30:28;9.75;;;6.63;;
23060;SDS011;11698;47.690;9.132;2022-10-04T11:38:43;9.05;;;5.90;;
23060;SDS011;11698;47.690;9.132;2022-10-04T11:41:07;8.05;;;6.15;;
23060;SDS011;11698;47.690;9.132;2022-10-04T11:43:40;9.30;;;6.55;;
23060;SDS011;11698;47.690;9.132;2022-10-04T11:51:20;8.23;;;6.57;;
23060;SDS011;11698;47.690;9.132;2022-10-04T11:56:43;8.48;;;6.53;;
23060;SDS011;11698;47.690;9.132;2022-10-04T12:00:13;8.32;;;6.53;;
23060;SDS011;11698;47.690;9.132;2022-10-04T12:10:12;8.02;;;6.28;;
23060;SDS011;11698;47.690;9.132;2022-10-04T12:21:29;8.88;;;6.68;;
23060;SDS011;11698;47.690;9.132;2022-10-04T12:31:58;7.80;;;6.20;;
23060;SDS011;11698;47.690;9.132;2022-10-04T12:34:35;8.07;;;6.35;;
23060;SDS011;11698;47.690;9.132;2022-10-04T12:48:07;7.82;;;5.97;;
23060;SDS011;11698;47.690;9.132;2022-10-04T12:50:52;11.57;;;7.55;;
23060;SDS011;11698;47.690;9.132;2022-10-04T12:56:28;7.40;;;5.90;;
23060;SDS011;11698;47.690;9.132;2022-10-04T13:06:34;7.00;;;5.35;;
23060;SDS011;11698;47.690;9.132;2022-10-04T13:09:19;7.95;;;6.10;;
23060;SDS011;11698;47.690;9.132;2022-10-04T13:24:39;6.13;;;5.35;;
23060;SDS011;11698;47.690;9.132;2022-10-04T13:27:27;7.07;;;5.38;;
23060;SDS011;11698;47.690;9.132;2022-10-04T13:32:34;7.60;;;5.43;;
23060;SDS011;11698;47.690;9.132;2022-10-04T13:37:39;5.65;;;4.85;;
23060;SDS011;11698;47.690;9.132;2022-10-04T13:40:27;7.68;;;5.70;;
23060;SDS011;11698;47.690;9.132;2022-10-04T13:43:06;5.97;;;5.28;;
23060;SDS011;11698;47.690;9.132;2022-10-04T14:10:00;5.82;;;5.25;;
23060;SDS011;11698;47.690;9.132;2022-10-04T14:37:00;4.10;;;3.40;;
23060;SDS011;11698;47.690;9.132;2022-10-04T14:41:49;4.68;;;4.00;;
23060;SDS011;11698;47.690;9.132;2022-10-04T14:44:35;4.10;;;3.70;;
23060;SDS011;11698;47.690;9.132;2022-10-04T14:47:09;4.85;;;4.35;;
23060;SDS011;11698;47.690;9.132;2022-10-04T14:54:52;5.75;;;4.25;;
23060;SDS011;11698;47.690;9.132;2022-10-04T15:02:39;5.27;;;4.73;;
23060;SDS011;11698;47.690;9.132;2022-10-04T15:10:47;5.53;;;5.00;;
23060;SDS011;11698;47.690;9.132;2022-10-04T15:26:35;4.70;;;4.13;;
23060;SDS011;11698;47.690;9.132;2022-10-04T15:28:50;3.97;;;3.30;;
23060;SDS011;11698;47.690;9.132;2022-10-04T15:31:40;4.22;;;3.83;;
23060;SDS011;11698;47.690;9.132;2022-10-04T15:37:03;4.43;;;4.00;;
23060;SDS011;11698;47.690;9.132;2022-10-04T15:44:32;4.53;;;3.55;;
23060;SDS011;11698;47.690;9.132;2022-10-04T15:56:59;4.57;;;3.85;;
23060;SDS011;11698;47.690;9.132;2022-10-04T15:59:46;4.97;;;3.85;;
23060;SDS011;11698;47.690;9.132;2022-10-04T16:02:26;4.77;;;4.07;;
23060;SDS011;11698;47.690;9.132;2022-10-04T16:07:49;5.80;;;3.75;;
23060;SDS011;11698;47.690;9.132;2022-10-04T16:10:26;4.97;;;4.28;;
23060;SDS011;11698;47.690;9.132;2022-10-04T16:13:00;4.97;;;3.88;;
23060;SDS011;11698;47.690;9.132;2022-10-04T16:25:42;5.43;;;3.20;;
23060;SDS011;11698;47.690;9.132;2022-10-04T16:39:11;4.32;;;3.38;;
23060;SDS011;11698;47.690;9.132;2022-10-04T16:41:58;3.87;;;3.33;;
23060;SDS011;11698;47.690;9.132;2022-10-04T16:44:28;6.20;;;3.67;;
23060;SDS011;11698;47.690;9.132;2022-10-04T16:46:55;4.68;;;3.40;;
23060;SDS011;11698;47.690;9.132;2022-10-04T16:49:38;4.88;;;3.83;;
23060;SDS011;11698;47.690;9.132;2022-10-04T16:57:22;5.13;;;3.90;;
23060;SDS011;11698;47.690;9.132;2022-10-04T16:59:58;4.32;;;3.85;;
23060;SDS011;11698;47.690;9.132;2022-10-04T17:09:54;8.35;;;6.63;;
23060;SDS011;11698;47.690;9.132;2022-10-04T17:17:56;6.10;;;5.07;;
23060;SDS011;11698;47.690;9.132;2022-10-04T17:20:43;6.25;;;4.18;;
23060;SDS011;11698;47.690;9.132;2022-10-04T17:28:27;4.90;;;3.70;;
23060;SDS011;11698;47.690;9.132;2022-10-04T17:46:36;5.38;;;3.63;;
23060;SDS011;11698;47.690;9.132;2022-10-04T17:49:13;6.45;;;3.80;;
23060;SDS011;11698;47.690;9.132;2022-10-04T17:52:03;6.45;;;4.05;;
23060;SDS011;11698;47.690;9.132;2022-10-04T17:54:49;6.18;;;3.80;;
23060;SDS011;11698;47.690;9.132;2022-10-04T18:05:26;5.88;;;4.32;;
23060;SDS011;11698;47.690;9.132;2022-10-04T18:07:59;7.47;;;4.00;;
23060;SDS011;11698;47.690;9.132;2022-10-04T18:13:00;6.45;;;4.05;;
23060;SDS011;11698;47.690;9.132;2022-10-04T18:15:33;5.38;;;3.85;;
23060;SDS011;11698;47.690;9.132;2022-10-04T18:20:38;5.35;;;3.70;;
23060;SDS011;11698;47.690;9.132;2022-10-04T18:23:26;6.80;;;3.70;;
23060;SDS011;11698;47.690;9.132;2022-10-04T18:26:13;4.97;;;3.88;;
23060;SDS011;11698;47.690;9.132;2022-10-04T18:28:41;5.68;;;4.43;;
23060;SDS011;11698;47.690;9.132;2022-10-04T18:31:30;4.53;;;4.10;;
23060;SDS011;11698;47.690;9.132;2022-10-04T18:33:57;6.18;;;4.22;;
23060;SDS011;11698;47.690;9.132;2022-10-04T18:36:29;5.50;;;3.90;;
23060;SDS011;11698;47.690;9.132;2022-10-04T18:41:42;8.73;;;4.95;;
23060;SDS011;11698;47.690;9.132;2022-10-04T18:44:27;8.85;;;6.30;;
23060;SDS011;11698;47.690;9.132;2022-10-04T18:46:59;9.90;;;6.47;;
23060;SDS011;11698;47.690;9.132;2022-10-04T18:49:27;11.02;;;6.55;;
23060;SDS011;11698;47.690;9.132;2022-10-04T18:51:57;7.97;;;5.53;;
23060;SDS011;11698;47.690;9.132;2022-10-04T19:10:01;8.57;;;6.33;;
23060;SDS011;11698;47.690;9.132;2022-10-04T19:12:49;9.60;;;6.15;;
23060;SDS011;11698;47.690;9.132;2022-10-04T19:15:20;7.55;;;5.65;;
23060;SDS011;11698;47.690;9.132;2022-10-04T19:20:48;8.18;;;5.60;;
23060;SDS011;11698;47.690;9.132;2022-10-04T19:23:18;7.68;;;5.35;;
23060;SDS011;11698;47.690;9.132;2022-10-04T19:26:08;6.70;;;5.45;;
23060;SDS011;11698;47.690;9.132;2022-10-04T19:28:35;8.80;;;5.85;;
23060;SDS011;11698;47.690;9.132;2022-10-04T19:37:06;8.00;;;5.03;;
23060;SDS011;11698;47.690;9.132;2022-10-04T19:41:46;9.15;;;5.03;;
23060;SDS011;11698;47.690;9.132;2022-10-04T19:52:22;7.78;;;5.63;;
23060;SDS011;11698;47.690;9.132;2022-10-04T19:54:47;8.32;;;6.18;;
23060;SDS011;11698;47.690;9.132;2022-10-04T19:57:17;8.87;;;6.10;;
23060;SDS011;11698;47.690;9.132;2022-10-04T19:59:47;8.55;;;5.68;;
23060;SDS011;11698;47.690;9.132;2022-10-04T20:02:14;9.40;;;6.27;;
23060;SDS011;11698;47.690;9.132;2022-10-04T20:04:40;8.75;;;6.25;;
23060;SDS011;11698;47.690;9.132;2022-10-04T20:12:07;7.97;;;4.45;;
23060;SDS011;11698;47.690;9.132;2022-10-04T20:14:56;6.88;;;4.80;;
23060;SDS011;11698;47.690;9.132;2022-10-04T20:17:39;7.67;;;5.20;;
23060;SDS011;11698;47.690;9.132;2022-10-04T20:20:05;8.15;;;5.38;;
23060;SDS011;11698;47.690;9.132;2022-10-04T20:22:53;8.48;;;6.05;;
23060;SDS011;11698;47.690;9.132;2022-10-04T20:28:02;8.47;;;6.60;;
23060;SDS011;11698;47.690;9.132;2022-10-04T20:30:46;8.60;;;6.00;;
23060;SDS011;11698;47.690;9.132;2022-10-04T20:33:59;7.25;;;5.75;;
23060;SDS011;11698;47.690;9.132;2022-10-04T20:38:50;10.32;;;6.63;;
23060;SDS011;11698;47.690;9.132;2022-10-04T20:46:59;8.32;;;5.80;;
23060;SDS011;11698;47.690;9.132;2022-10-04T20:49:25;9.57;;;6.00;;
23060;SDS011;11698;47.690;9.132;2022-10-04T20:51:51;8.40;;;6.45;;
23060;SDS011;11698;47.690;9.132;2022-10-04T20:54:18;8.85;;;6.57;;
23060;SDS011;11698;47.690;9.132;2022-10-04T20:56:48;9.88;;;6.32;;
23060;SDS011;11698;47.690;9.132;2022-10-04T20:59:16;6.63;;;5.63;;
23060;SDS011;11698;47.690;9.132;2022-10-04T21:01:42;7.60;;;6.10;;
23060;SDS011;11698;47.690;9.132;2022-10-04T21:04:25;9.55;;;5.40;;
23060;SDS011;11698;47.690;9.132;2022-10-04T21:07:00;8.82;;;6.03;;
23060;SDS011;11698;47.690;9.132;2022-10-04T21:09:27;8.75;;;5.93;;
23060;SDS011;11698;47.690;9.132;2022-10-04T21:11:54;8.80;;;5.72;;
23060;SDS011;11698;47.690;9.132;2022-10-04T21:16:59;9.30;;;5.40;;
23060;SDS011;11698;47.690;9.132;2022-10-04T21:22:06;8.00;;;5.57;;
23060;SDS011;11698;47.690;9.132;2022-10-04T21:26:59;9.02;;;5.57;;
23060;SDS011;11698;47.690;9.132;2022-10-04T21:29:25;7.78;;;5.43;;
23060;SDS011;11698;47.690;9.132;2022-10-04T21:31:51;7.45;;;5.28;;
23060;SDS011;11698;47.690;9.132;2022-10-04T21:34:17;7.30;;;5.20;;
23060;SDS011;11698;47.690;9.132;2022-10-04T21:36:43;7.07;;;5.33;;
23060;SDS011;11698;47.690;9.132;2022-10-04T21:39:09;7.78;;;5.18;;
23060;SDS011;11698;47.690;9.132;2022-10-04T21:41:35;10.23;;;5.90;;
23060;SDS011;11698;47.690;9.132;2022-10-04T21:44:01;7.95;;;5.57;;
23060;SDS011;11698;47.690;9.132;2022-10-04T21:46:27;9.18;;;5.38;;
23060;SDS011;11698;47.690;9.132;2022-10-04T21:48:53;9.70;;;5.88;;
23060;SDS011;11698;47.690;9.132;2022-10-04T21:51:19;10.03;;;6.27;;
23060;SDS011;11698;47.690;9.132;2022-10-04T21:53:45;14.90;;;7.40;;
23060;SDS011;11698;47.690;9.132;2022-10-04T21:59:08;18.77;;;8.10;;
23060;SDS011;11698;47.690;9.132;2022-10-04T22:01:34;11.82;;;6.03;;
23060;SDS011;11698;47.690;9.132;2022-10-04T22:06:29;9.95;;;5.65;;
23060;SDS011;11698;47.690;9.132;2022-10-04T22:08:55;12.13;;;7.35;;
23060;SDS011;11698;47.690;9.132;2022-10-04T22:11:21;10.68;;;6.03;;
23060;SDS011;11698;47.690;9.132;2022-10-04T22:13:47;9.90;;;5.60;;
23060;SDS011;11698;47.690;9.132;2022-10-04T22:16:13;11.50;;;6.57;;
23060;SDS011;11698;47.690;9.132;2022-10-04T22:18:39;16.70;;;7.55;;
23060;SDS011;11698;47.690;9.132;2022-10-04T22:21:06;13.77;;;7.85;;
23060;SDS011;11698;47.690;9.132;2022-10-04T22:23:38;23.60;;;8.95;;
23060;SDS011;11698;47.690;9.132;2022-10-04T22:26:14;13.85;;;8.93;;
23060;SDS011;11698;47.690;9.132;2022-10-04T22:28:48;14.57;;;7.90;;
23060;SDS011;11698;47.690;9.132;2022-10-04T22:31:19;11.73;;;7.75;;
23060;SDS011;11698;47.690;9.132;2022-10-04T22:33:46;11.93;;;7.28;;
23060;SDS011;11698;47.690;9.132;2022-10-04T22:38:39;12.73;;;7.60;;
23060;SDS011;11698;47.690;9.132;2022-10-04T22:41:12;14.82;;;7.45;;
23060;SDS011;11698;47.690;9.132;2022-10-04T22:43:38;19.52;;;7.50;;
23060;SDS011;11698;47.690;9.132;2022-10-04T22:46:04;26.17;;;8.00;;
23060;SDS011;11698;47.690;9.132;2022-10-04T22:48:35;19.87;;;8.53;;
23060;SDS011;11698;47.690;9.132;2022-10-04T22:51:01;18.75;;;8.07;;
23060;SDS011;11698;47.690;9.132;2022-10-04T22:53:28;17.75;;;7.60;;
23060;SDS011;11698;47.690;9.132;2022-10-04T22:55:54;20.88;;;7.78;;
23060;SDS011;11698;47.690;9.132;2022-10-04T22:58:20;21.05;;;7.38;;
23060;SDS011;11698;47.690;9.132;2022-10-04T23:00:46;15.88;;;7.63;;
23060;SDS011;11698;47.690;9.132;2022-10-04T23:05:48;12.10;;;7.78;;
23060;SDS011;11698;47.690;9.132;2022-10-04T23:08:14;13.00;;;6.93;;
23060;SDS011;11698;47.690;9.132;2022-10-04T23:10:42;26.43;;;7.07;;
23060;SDS011;11698;47.690;9.132;2022-10-04T23:13:07;19.40;;;7.60;;
23060;SDS011;11698;47.690;9.132;2022-10-04T23:15:33;20.95;;;7.05;;
23060;SDS011;11698;47.690;9.132;2022-10-04T23:17:59;13.20;;;7.15;;
23060;SDS011;11698;47.690;9.132;2022-10-04T23:20:26;23.48;;;7.07;;
23060;SDS011;11698;47.690;9.132;2022-10-04T23:22:53;20.05;;;7.05;;
23060;SDS011;11698;47.690;9.132;2022-10-04T23:25:22;17.87;;;6.73;;
23060;SDS011;11698;47.690;9.132;2022-10-04T23:27:49;17.85;;;7.03;;
23060;SDS011;11698;47.690;9.132;2022-10-04T23:30:16;14.98;;;7.18;;
23060;SDS011;11698;47.690;9.132;2022-10-04T23:32:43;10.80;;;6.30;;
23060;SDS011;11698;47.690;9.132;2022-10-04T23:35:13;18.20;;;6.45;;
23060;SDS011;11698;47.690;9.132;2022-10-04T23:37:40;21.42;;;6.40;;
23060;SDS011;11698;47.690;9.132;2022-10-04T23:40:07;19.83;;;7.32;;
23060;SDS011;11698;47.690;9.132;2022-10-04T23:42:33;28.42;;;6.72;;
23060;SDS011;11698;47.690;9.132;2022-10-04T23:45:00;17.70;;;7.10;;
23060;SDS011;11698;47.690;9.132;2022-10-04T23:47:33;20.27;;;7.13;;
23060;SDS011;11698;47.690;9.132;2022-10-04T23:49:59;13.30;;;6.78;;
23060;SDS011;11698;47.690;9.132;2022-10-04T23:52:30;19.42;;;6.13;;
23060;SDS011;11698;47.690;9.132;2022-10-04T23:54:57;19.27;;;6.65;;
23060;SDS011;11698;47.690;9.132;2022-10-04T23:57:23;19.37;;;6.30;;
23060;SDS011;11698;47.690;9.132;2022-10-04T23:59:50;23.63;;;6.50;;
